Airfield :
LOGIN :

Register | Disclaimer

   EN    FR    IT 

 










Legend :    VFR   Marginal VFR   IFR   Intensive IFR   Very Intensive IFR
Visi :
Ceiling :
>= 8 km
>= 3000ft
5 to 8 km
1000 to 3000 ft
1500m to 5 km
500 to 1000 ft
800 to 1500m
200 to 500 ft
< 800m
< 200 ft
Symbols :   Thunderstorms  Fog  Heavy snow  Heavy precipitations  Wind > 20 kt
SIGMETs :     Misc.  Thunderstorms  Icing  Turbulence  Mountain Waves  Volcanic Ashes






- Airport Elevation : 13 ft
- IATA code : OST


EBOS - Oostend bruges Int.

CURRENT METAR :
  • 271720Z 16012KT 9999 FEW022TCU SCT044 08/06 Q0998 TEMPO 4000 RA

EXPIRED METARs :
  • 271650Z 17009KT 9999 -SHRA SCT022TCU SCT040 08/06 Q0999 TEMPO 4000 SHRA
  • 271620Z 16010KT 9999 FEW020 08/06 Q0999 NOSIG
  • 271550Z 17009KT 9999 FEW016 08/06 Q1000 NOSIG
  • 271520Z 18010KT 9999 FEW016 09/06 Q1001 NOSIG
  • 271450Z 19010KT 9999 -SHRA FEW013 SCT048 09/06 Q1001 NOSIG

TAF TAF EBOS
Valid from the 27 at 18:00 until the 29 at 00:00 UTC


271713Z 2718/2824 19015KT 9999 SCT020
TEMPO 2718/2720 21015G25KT 4500 SHRA SCT009 BKN012CB
TEMPO 2800/2806 20015G25KT 3500 SHRAGS SCT009 BKN012CB
BECMG 2802/2804 24020KT
TEMPO 2806/2812 26022G35KT



MET'MAP, your aeronautical weather chart ! - Copyright ORBIFLY December 2007 - Disclaimer

ORBIFLY MET'MAP TEAM :

Programming & Development : Alexandra Zaïnal
Concept & original design : Baudouin d'Aumeries
Assistance for programming : Marc-Olivier Méhu
Technical & hardware support : Manuel Goepfert

Contact : metmap@orbifly.com




SOURCES & CREDITS :

   NOAA